JST401 YBCG-YSSY
Flight info
| Callsign | JST401 |
|---|---|
| Flight time | N/A |
| Altitude | 36000 |
| Route | GOMOL Q16 APAGI H91 IGDAM H652 BOREE |
| Aircraft | A320/M-SDE3FGHIRWY/LB1 |
Departure
| Time | 2026-04-27 18:57 |
|---|---|
| Airport | Gold Coast Airport (YBCG) |
Arrival
| Time | N/A |
|---|---|
| Airport | Sydney Kingsford Smith International Airport (YSSY) |
| Time | Latitude | Longitude | Altitude | Speed | Heading |
|---|---|---|---|---|---|
| 2026-04-27 18:49 | -28.16630 | 153.51114 | 26 ft | 0 kts | 60° |
| 2026-04-27 18:49 | -28.16640 | 153.51092 | 29 ft | 3 kts | 62° |
| 2026-04-27 18:50 | -28.16653 | 153.51072 | 27 ft | 3 kts | 51° |
| 2026-04-27 18:50 | -28.16662 | 153.51048 | 30 ft | 3 kts | 109° |
| 2026-04-27 18:50 | -28.16646 | 153.51025 | 30 ft | 3 kts | 149° |
| 2026-04-27 18:50 | -28.16643 | 153.51023 | 31 ft | 0 kts | 150° |
| 2026-04-27 18:53 | -28.16643 | 153.51044 | 30 ft | 6 kts | 57° |
| 2026-04-27 18:53 | -28.16602 | 153.51001 | 28 ft | 13 kts | 325° |
| 2026-04-27 18:53 | -28.16512 | 153.50939 | 29 ft | 16 kts | 329° |
| 2026-04-27 18:53 | -28.16486 | 153.50828 | 26 ft | 16 kts | 300° |
| 2026-04-27 18:54 | -28.16388 | 153.50756 | 30 ft | 18 kts | 332° |
| 2026-04-27 18:54 | -28.16269 | 153.50681 | 27 ft | 21 kts | 330° |
| 2026-04-27 18:54 | -28.16135 | 153.50594 | 29 ft | 23 kts | 329° |
| 2026-04-27 18:54 | -28.15985 | 153.50498 | 27 ft | 26 kts | 331° |
| 2026-04-27 18:55 | -28.15822 | 153.50395 | 31 ft | 28 kts | 331° |
| 2026-04-27 18:55 | -28.15645 | 153.50283 | 29 ft | 30 kts | 330° |
| 2026-04-27 18:55 | -28.15644 | 153.50112 | 30 ft | 24 kts | 231° |
| 2026-04-27 18:55 | -28.15718 | 153.50114 | 26 ft | 0 kts | 152° |
| 2026-04-27 18:56 | -28.15721 | 153.50116 | 26 ft | 3 kts | 152° |
| 2026-04-27 18:56 | -28.15839 | 153.50187 | 27 ft | 49 kts | 152° |
| 2026-04-27 18:56 | -28.16331 | 153.50503 | 27 ft | 112 kts | 150° |
| 2026-04-27 18:57 | -28.17152 | 153.51030 | 58 ft | 156 kts | 154° |
| 2026-04-27 18:57 | -28.18110 | 153.51642 | 632 ft | 159 kts | 155° |
| 2026-04-27 18:57 | -28.19071 | 153.52262 | 1345 ft | 157 kts | 152° |
| 2026-04-27 18:57 | -28.20031 | 153.52864 | 1990 ft | 163 kts | 153° |
| 2026-04-27 18:58 | -28.21132 | 153.53415 | 2316 ft | 184 kts | 159° |
| 2026-04-27 18:58 | -28.21951 | 153.53728 | 2479 ft | 200 kts | 161° |
| 2026-04-27 18:58 | -28.23869 | 153.54431 | 3000 ft | 233 kts | 161° |
| 2026-04-27 18:58 | -28.25513 | 153.54714 | 3709 ft | 246 kts | 179° |
| 2026-04-27 18:59 | -28.27212 | 153.54269 | 4553 ft | 259 kts | 202° |
| 2026-04-27 18:59 | -28.28670 | 153.53004 | 5400 ft | 272 kts | 227° |
| 2026-04-27 18:59 | -28.29749 | 153.51197 | 6250 ft | 280 kts | 233° |
| 2026-04-27 18:59 | -28.30834 | 153.49345 | 7051 ft | 284 kts | 233° |
| 2026-04-27 19:00 | -28.31923 | 153.47530 | 7825 ft | 289 kts | 233° |
| 2026-04-27 19:00 | -28.33067 | 153.45643 | 8633 ft | 292 kts | 233° |
| 2026-04-27 19:00 | -28.34229 | 153.43726 | 9434 ft | 297 kts | 233° |
| 2026-04-27 19:00 | -28.35404 | 153.41778 | 10234 ft | 301 kts | 233° |
| 2026-04-27 19:01 | -28.36611 | 153.39777 | 10648 ft | 318 kts | 233° |
| 2026-04-27 19:01 | -28.37906 | 153.37630 | 10893 ft | 339 kts | 234° |
| 2026-04-27 19:01 | -28.39254 | 153.35384 | 11471 ft | 347 kts | 233° |
| 2026-04-27 19:01 | -28.40600 | 153.33135 | 12152 ft | 351 kts | 234° |
| 2026-04-27 19:02 | -28.41977 | 153.30832 | 12870 ft | 354 kts | 234° |
| 2026-04-27 19:02 | -28.43363 | 153.28513 | 13584 ft | 356 kts | 234° |
| 2026-04-27 19:02 | -28.44763 | 153.26172 | 14255 ft | 359 kts | 234° |
| 2026-04-27 19:02 | -28.46176 | 153.23812 | 14836 ft | 363 kts | 234° |
| 2026-04-27 19:03 | -28.47600 | 153.21431 | 15455 ft | 365 kts | 234° |
| 2026-04-27 19:03 | -28.49029 | 153.19032 | 16053 ft | 368 kts | 234° |
| 2026-04-27 19:03 | -28.50472 | 153.16609 | 16636 ft | 371 kts | 234° |
| 2026-04-27 19:03 | -28.51435 | 153.14995 | 17034 ft | 373 kts | 234° |
| 2026-04-27 19:04 | -28.53392 | 153.11712 | 17824 ft | 377 kts | 234° |
| 2026-04-27 19:04 | -28.54869 | 153.09236 | 18414 ft | 380 kts | 234° |
| 2026-04-27 19:04 | -28.56344 | 153.06765 | 18929 ft | 383 kts | 234° |
| 2026-04-27 19:04 | -28.57719 | 153.04462 | 19415 ft | 386 kts | 234° |
| 2026-04-27 19:05 | -28.59228 | 153.01932 | 19959 ft | 388 kts | 234° |
| 2026-04-27 19:05 | -28.60745 | 152.99382 | 20508 ft | 390 kts | 235° |
| 2026-04-27 19:05 | -28.62266 | 152.96814 | 21031 ft | 392 kts | 235° |
| 2026-04-27 19:05 | -28.63797 | 152.94226 | 21542 ft | 395 kts | 235° |
| 2026-04-27 19:06 | -28.65332 | 152.91630 | 22038 ft | 397 kts | 235° |
| 2026-04-27 19:06 | -28.66881 | 152.89014 | 22528 ft | 399 kts | 235° |
| 2026-04-27 19:06 | -28.68440 | 152.86383 | 23018 ft | 402 kts | 235° |
| 2026-04-27 19:06 | -28.70008 | 152.83744 | 23501 ft | 404 kts | 235° |
| 2026-04-27 19:07 | -28.71521 | 152.81198 | 23946 ft | 406 kts | 235° |
| 2026-04-27 19:07 | -28.73137 | 152.78475 | 24357 ft | 408 kts | 235° |
| 2026-04-27 19:07 | -28.74639 | 152.75935 | 24744 ft | 410 kts | 235° |
| 2026-04-27 19:07 | -28.76249 | 152.73211 | 25139 ft | 412 kts | 235° |
| 2026-04-27 19:08 | -28.77857 | 152.70491 | 25529 ft | 414 kts | 235° |
| 2026-04-27 19:08 | -28.79465 | 152.67761 | 25925 ft | 416 kts | 235° |
| 2026-04-27 19:08 | -28.80535 | 152.65943 | 26183 ft | 418 kts | 235° |
| 2026-04-27 19:08 | -28.82159 | 152.63187 | 26556 ft | 420 kts | 235° |
| 2026-04-27 19:09 | -28.84578 | 152.59743 | 27053 ft | 421 kts | 223° |
| 2026-04-27 19:09 | -28.86817 | 152.57588 | 27416 ft | 422 kts | 214° |
| 2026-04-27 19:09 | -28.89346 | 152.55880 | 27771 ft | 423 kts | 206° |
| 2026-04-27 19:09 | -28.91967 | 152.54339 | 28143 ft | 425 kts | 206° |
| 2026-04-27 19:10 | -28.94605 | 152.52778 | 28518 ft | 428 kts | 206° |
| 2026-04-27 19:10 | -28.96385 | 152.51722 | 28774 ft | 429 kts | 206° |
| 2026-04-27 19:10 | -28.99006 | 152.50164 | 29152 ft | 431 kts | 206° |
| 2026-04-27 19:10 | -29.00808 | 152.49090 | 29403 ft | 433 kts | 206° |
| 2026-04-27 19:11 | -29.04351 | 152.46972 | 29890 ft | 435 kts | 206° |
| 2026-04-27 19:11 | -29.07040 | 152.45360 | 30269 ft | 438 kts | 206° |
| 2026-04-27 19:11 | -29.09743 | 152.43741 | 30584 ft | 439 kts | 206° |
| 2026-04-27 19:11 | -29.12463 | 152.42117 | 30913 ft | 440 kts | 206° |
| 2026-04-27 19:12 | -29.15161 | 152.40501 | 31353 ft | 439 kts | 206° |
| 2026-04-27 19:12 | -29.17869 | 152.38881 | 31799 ft | 437 kts | 207° |
| 2026-04-27 19:12 | -29.20559 | 152.37272 | 32232 ft | 436 kts | 207° |
| 2026-04-27 19:12 | -29.23248 | 152.35664 | 32661 ft | 435 kts | 207° |
| 2026-04-27 19:13 | -29.25931 | 152.34060 | 33086 ft | 434 kts | 207° |
| 2026-04-27 19:13 | -29.28604 | 152.32462 | 33522 ft | 433 kts | 207° |
| 2026-04-27 19:13 | -29.31268 | 152.30864 | 33971 ft | 432 kts | 207° |
| 2026-04-27 19:13 | -29.33925 | 152.29266 | 34394 ft | 431 kts | 207° |
| 2026-04-27 19:14 | -29.36580 | 152.27670 | 34756 ft | 430 kts | 207° |
| 2026-04-27 19:14 | -29.39232 | 152.26081 | 35103 ft | 430 kts | 207° |
| 2026-04-27 19:14 | -29.41877 | 152.24493 | 35436 ft | 429 kts | 207° |
| 2026-04-27 19:14 | -29.44519 | 152.22905 | 35759 ft | 428 kts | 207° |
| 2026-04-27 19:15 | -29.47160 | 152.21316 | 36068 ft | 428 kts | 207° |
| 2026-04-27 19:15 | -29.49796 | 152.19730 | 36278 ft | 429 kts | 207° |
| 2026-04-27 19:15 | -29.52449 | 152.18131 | 36318 ft | 431 kts | 207° |
| 2026-04-27 19:16 | -29.57566 | 152.15036 | 36326 ft | 432 kts | 207° |
| 2026-04-27 19:16 | -29.62823 | 152.11864 | 36330 ft | 432 kts | 207° |